sensor_id;sensor_type;location;lat;lon;timestamp;P1;durP1;ratioP1;P2;durP2;ratioP2
51332;SDS011;37417;48.118;11.734;2022-12-08T00:02:33;12.82;;;9.10;;
51332;SDS011;37417;48.118;11.734;2022-12-08T00:05:19;16.50;;;9.82;;
51332;SDS011;37417;48.118;11.734;2022-12-08T00:08:23;17.05;;;9.70;;
51332;SDS011;37417;48.118;11.734;2022-12-08T00:11:27;13.48;;;8.82;;
51332;SDS011;37417;48.118;11.734;2022-12-08T00:14:13;14.82;;;9.52;;
51332;SDS011;37417;48.118;11.734;2022-12-08T00:16:58;15.52;;;8.85;;
51332;SDS011;37417;48.118;11.734;2022-12-08T00:19:45;16.02;;;9.23;;
51332;SDS011;37417;48.118;11.734;2022-12-08T00:22:31;17.38;;;10.88;;
51332;SDS011;37417;48.118;11.734;2022-12-08T00:25:16;13.93;;;8.88;;
51332;SDS011;37417;48.118;11.734;2022-12-08T00:28:02;19.30;;;10.32;;
51332;SDS011;37417;48.118;11.734;2022-12-08T00:30:47;13.93;;;7.72;;
51332;SDS011;37417;48.118;11.734;2022-12-08T00:33:33;13.45;;;8.35;;
51332;SDS011;37417;48.118;11.734;2022-12-08T00:36:18;15.20;;;9.82;;
51332;SDS011;37417;48.118;11.734;2022-12-08T00:39:04;14.75;;;9.18;;
51332;SDS011;37417;48.118;11.734;2022-12-08T00:41:50;16.88;;;9.00;;
51332;SDS011;37417;48.118;11.734;2022-12-08T00:44:54;13.15;;;8.00;;
51332;SDS011;37417;48.118;11.734;2022-12-08T00:47:39;12.18;;;8.57;;
51332;SDS011;37417;48.118;11.734;2022-12-08T00:50:25;14.98;;;9.32;;
51332;SDS011;37417;48.118;11.734;2022-12-08T00:53:11;17.40;;;9.50;;
51332;SDS011;37417;48.118;11.734;2022-12-08T00:55:56;13.98;;;8.63;;
51332;SDS011;37417;48.118;11.734;2022-12-08T00:58:42;13.52;;;8.57;;
51332;SDS011;37417;48.118;11.734;2022-12-08T01:01:27;12.63;;;8.07;;
51332;SDS011;37417;48.118;11.734;2022-12-08T01:04:14;15.75;;;8.95;;
51332;SDS011;37417;48.118;11.734;2022-12-08T01:07:00;13.40;;;8.57;;
51332;SDS011;37417;48.118;11.734;2022-12-08T01:09:45;13.13;;;7.28;;
51332;SDS011;37417;48.118;11.734;2022-12-08T01:12:31;15.30;;;9.88;;
51332;SDS011;37417;48.118;11.734;2022-12-08T01:15:16;17.00;;;8.65;;
51332;SDS011;37417;48.118;11.734;2022-12-08T01:18:02;12.30;;;7.45;;
51332;SDS011;37417;48.118;11.734;2022-12-08T01:20:47;15.60;;;8.57;;
51332;SDS011;37417;48.118;11.734;2022-12-08T01:23:33;14.48;;;9.00;;
51332;SDS011;37417;48.118;11.734;2022-12-08T01:26:19;15.90;;;10.35;;
51332;SDS011;37417;48.118;11.734;2022-12-08T01:29:05;15.45;;;9.93;;
51332;SDS011;37417;48.118;11.734;2022-12-08T01:31:50;14.57;;;8.68;;
51332;SDS011;37417;48.118;11.734;2022-12-08T01:34:36;14.50;;;8.80;;
51332;SDS011;37417;48.118;11.734;2022-12-08T01:37:22;15.25;;;9.15;;
51332;SDS011;37417;48.118;11.734;2022-12-08T01:40:07;18.42;;;10.10;;
51332;SDS011;37417;48.118;11.734;2022-12-08T01:42:53;20.77;;;10.55;;
51332;SDS011;37417;48.118;11.734;2022-12-08T01:45:39;13.25;;;8.90;;
51332;SDS011;37417;48.118;11.734;2022-12-08T01:48:25;15.55;;;9.55;;
51332;SDS011;37417;48.118;11.734;2022-12-08T01:51:11;14.57;;;8.10;;
51332;SDS011;37417;48.118;11.734;2022-12-08T01:53:57;16.42;;;9.32;;
51332;SDS011;37417;48.118;11.734;2022-12-08T01:56:45;14.63;;;9.68;;
51332;SDS011;37417;48.118;11.734;2022-12-08T01:59:35;18.40;;;9.68;;
51332;SDS011;37417;48.118;11.734;2022-12-08T02:02:22;15.73;;;8.82;;
51332;SDS011;37417;48.118;11.734;2022-12-08T02:05:08;19.10;;;10.00;;
51332;SDS011;37417;48.118;11.734;2022-12-08T02:07:54;20.70;;;9.32;;
51332;SDS011;37417;48.118;11.734;2022-12-08T02:10:41;17.70;;;10.52;;
51332;SDS011;37417;48.118;11.734;2022-12-08T02:13:27;17.27;;;9.80;;
51332;SDS011;37417;48.118;11.734;2022-12-08T02:19:18;15.80;;;9.75;;
51332;SDS011;37417;48.118;11.734;2022-12-08T02:27:56;13.80;;;9.45;;
51332;SDS011;37417;48.118;11.734;2022-12-08T02:30:49;15.82;;;9.88;;
51332;SDS011;37417;48.118;11.734;2022-12-08T02:47:49;16.23;;;8.82;;
51332;SDS011;37417;48.118;11.734;2022-12-08T02:50:36;15.45;;;8.65;;
51332;SDS011;37417;48.118;11.734;2022-12-08T02:53:21;13.43;;;8.55;;
51332;SDS011;37417;48.118;11.734;2022-12-08T02:59:05;15.63;;;8.52;;
51332;SDS011;37417;48.118;11.734;2022-12-08T03:11:02;18.23;;;9.13;;
51332;SDS011;37417;48.118;11.734;2022-12-08T03:13:49;14.07;;;9.05;;
51332;SDS011;37417;48.118;11.734;2022-12-08T03:16:37;14.38;;;8.82;;
51332;SDS011;37417;48.118;11.734;2022-12-08T03:19:27;16.08;;;9.30;;
51332;SDS011;37417;48.118;11.734;2022-12-08T03:22:14;17.92;;;9.38;;
51332;SDS011;37417;48.118;11.734;2022-12-08T03:25:01;18.27;;;10.02;;
51332;SDS011;37417;48.118;11.734;2022-12-08T03:27:46;16.77;;;9.57;;
51332;SDS011;37417;48.118;11.734;2022-12-08T03:30:34;16.17;;;9.85;;
51332;SDS011;37417;48.118;11.734;2022-12-08T03:33:22;16.98;;;9.95;;
51332;SDS011;37417;48.118;11.734;2022-12-08T03:36:09;17.02;;;9.30;;
51332;SDS011;37417;48.118;11.734;2022-12-08T03:38:56;15.73;;;8.50;;
51332;SDS011;37417;48.118;11.734;2022-12-08T03:41:41;18.85;;;9.40;;
51332;SDS011;37417;48.118;11.734;2022-12-08T03:44:27;16.55;;;9.27;;
51332;SDS011;37417;48.118;11.734;2022-12-08T03:47:13;19.35;;;9.57;;
51332;SDS011;37417;48.118;11.734;2022-12-08T03:49:58;15.82;;;8.45;;
51332;SDS011;37417;48.118;11.734;2022-12-08T03:52:44;17.42;;;10.00;;
51332;SDS011;37417;48.118;11.734;2022-12-08T03:55:29;17.08;;;10.13;;
51332;SDS011;37417;48.118;11.734;2022-12-08T03:58:15;17.38;;;9.45;;
51332;SDS011;37417;48.118;11.734;2022-12-08T04:01:00;12.55;;;8.57;;
51332;SDS011;37417;48.118;11.734;2022-12-08T04:03:46;13.90;;;8.82;;
51332;SDS011;37417;48.118;11.734;2022-12-08T04:06:32;14.98;;;9.20;;
51332;SDS011;37417;48.118;11.734;2022-12-08T04:09:17;19.27;;;10.38;;
51332;SDS011;37417;48.118;11.734;2022-12-08T04:12:03;15.90;;;8.60;;
51332;SDS011;37417;48.118;11.734;2022-12-08T04:14:48;15.60;;;9.25;;
51332;SDS011;37417;48.118;11.734;2022-12-08T04:17:34;17.17;;;9.30;;
51332;SDS011;37417;48.118;11.734;2022-12-08T04:20:20;15.75;;;8.68;;
51332;SDS011;37417;48.118;11.734;2022-12-08T04:23:05;12.75;;;7.68;;
51332;SDS011;37417;48.118;11.734;2022-12-08T04:25:51;16.88;;;8.88;;
51332;SDS011;37417;48.118;11.734;2022-12-08T04:28:37;15.73;;;9.32;;
51332;SDS011;37417;48.118;11.734;2022-12-08T04:31:23;18.33;;;9.15;;
51332;SDS011;37417;48.118;11.734;2022-12-08T04:34:08;13.43;;;8.27;;
51332;SDS011;37417;48.118;11.734;2022-12-08T04:36:54;15.85;;;8.63;;
51332;SDS011;37417;48.118;11.734;2022-12-08T04:39:39;15.30;;;8.75;;
51332;SDS011;37417;48.118;11.734;2022-12-08T04:42:25;15.98;;;8.05;;
51332;SDS011;37417;48.118;11.734;2022-12-08T04:45:10;15.20;;;8.35;;
51332;SDS011;37417;48.118;11.734;2022-12-08T04:47:57;11.90;;;7.63;;
51332;SDS011;37417;48.118;11.734;2022-12-08T04:50:43;18.33;;;9.20;;
51332;SDS011;37417;48.118;11.734;2022-12-08T04:53:29;20.38;;;9.43;;
51332;SDS011;37417;48.118;11.734;2022-12-08T04:56:15;15.30;;;9.40;;
51332;SDS011;37417;48.118;11.734;2022-12-08T04:59:01;15.27;;;8.75;;
51332;SDS011;37417;48.118;11.734;2022-12-08T05:01:47;19.13;;;8.95;;
51332;SDS011;37417;48.118;11.734;2022-12-08T05:04:32;15.85;;;8.98;;
51332;SDS011;37417;48.118;11.734;2022-12-08T05:07:18;16.35;;;8.35;;
51332;SDS011;37417;48.118;11.734;2022-12-08T05:10:03;12.70;;;7.90;;
51332;SDS011;37417;48.118;11.734;2022-12-08T05:12:49;12.88;;;8.70;;
51332;SDS011;37417;48.118;11.734;2022-12-08T05:15:35;16.77;;;9.85;;
51332;SDS011;37417;48.118;11.734;2022-12-08T05:18:20;14.95;;;8.27;;
51332;SDS011;37417;48.118;11.734;2022-12-08T05:21:06;16.17;;;9.02;;
51332;SDS011;37417;48.118;11.734;2022-12-08T05:23:52;17.83;;;9.82;;
51332;SDS011;37417;48.118;11.734;2022-12-08T05:26:37;20.55;;;11.07;;
51332;SDS011;37417;48.118;11.734;2022-12-08T05:29:23;15.52;;;9.90;;
51332;SDS011;37417;48.118;11.734;2022-12-08T05:32:09;16.85;;;10.20;;
51332;SDS011;37417;48.118;11.734;2022-12-08T05:34:54;16.52;;;9.18;;
51332;SDS011;37417;48.118;11.734;2022-12-08T05:37:40;16.45;;;9.32;;
51332;SDS011;37417;48.118;11.734;2022-12-08T05:40:25;17.58;;;10.25;;
51332;SDS011;37417;48.118;11.734;2022-12-08T05:43:11;15.43;;;8.63;;
51332;SDS011;37417;48.118;11.734;2022-12-08T05:45:57;20.23;;;9.85;;
51332;SDS011;37417;48.118;11.734;2022-12-08T05:48:42;17.92;;;9.57;;
51332;SDS011;37417;48.118;11.734;2022-12-08T05:51:28;15.07;;;8.98;;
51332;SDS011;37417;48.118;11.734;2022-12-08T05:54:13;13.98;;;8.13;;
51332;SDS011;37417;48.118;11.734;2022-12-08T05:56:59;17.10;;;9.02;;
51332;SDS011;37417;48.118;11.734;2022-12-08T05:59:44;20.10;;;9.52;;
51332;SDS011;37417;48.118;11.734;2022-12-08T06:02:30;15.45;;;8.68;;
51332;SDS011;37417;48.118;11.734;2022-12-08T06:05:15;18.65;;;9.40;;
51332;SDS011;37417;48.118;11.734;2022-12-08T06:08:01;17.45;;;9.18;;
51332;SDS011;37417;48.118;11.734;2022-12-08T06:10:47;14.90;;;9.50;;
51332;SDS011;37417;48.118;11.734;2022-12-08T06:13:32;19.00;;;9.88;;
51332;SDS011;37417;48.118;11.734;2022-12-08T06:16:18;15.20;;;9.38;;
51332;SDS011;37417;48.118;11.734;2022-12-08T06:19:04;19.27;;;10.65;;
51332;SDS011;37417;48.118;11.734;2022-12-08T06:21:49;20.63;;;9.10;;
51332;SDS011;37417;48.118;11.734;2022-12-08T06:24:35;19.40;;;9.93;;
51332;SDS011;37417;48.118;11.734;2022-12-08T06:27:20;15.15;;;8.95;;
51332;SDS011;37417;48.118;11.734;2022-12-08T06:30:06;13.88;;;8.05;;
51332;SDS011;37417;48.118;11.734;2022-12-08T06:32:52;20.92;;;10.02;;
51332;SDS011;37417;48.118;11.734;2022-12-08T06:35:37;16.20;;;9.43;;
51332;SDS011;37417;48.118;11.734;2022-12-08T06:38:23;20.15;;;9.50;;
51332;SDS011;37417;48.118;11.734;2022-12-08T06:41:09;19.25;;;9.18;;
51332;SDS011;37417;48.118;11.734;2022-12-08T06:43:55;17.92;;;10.05;;
51332;SDS011;37417;48.118;11.734;2022-12-08T06:46:41;19.08;;;9.73;;
51332;SDS011;37417;48.118;11.734;2022-12-08T06:49:27;17.65;;;9.90;;
51332;SDS011;37417;48.118;11.734;2022-12-08T06:52:12;18.15;;;9.40;;
51332;SDS011;37417;48.118;11.734;2022-12-08T06:54:58;17.23;;;9.68;;
51332;SDS011;37417;48.118;11.734;2022-12-08T06:57:43;16.52;;;9.30;;
51332;SDS011;37417;48.118;11.734;2022-12-08T07:00:29;16.90;;;9.38;;
51332;SDS011;37417;48.118;11.734;2022-12-08T07:03:14;27.90;;;9.82;;
51332;SDS011;37417;48.118;11.734;2022-12-08T07:06:00;13.95;;;7.95;;
51332;SDS011;37417;48.118;11.734;2022-12-08T07:08:45;12.70;;;8.52;;
51332;SDS011;37417;48.118;11.734;2022-12-08T07:11:31;17.60;;;8.30;;
51332;SDS011;37417;48.118;11.734;2022-12-08T07:14:16;13.68;;;8.10;;
51332;SDS011;37417;48.118;11.734;2022-12-08T07:17:04;17.77;;;8.77;;
51332;SDS011;37417;48.118;11.734;2022-12-08T07:19:50;14.57;;;7.80;;
51332;SDS011;37417;48.118;11.734;2022-12-08T07:22:35;14.25;;;8.38;;
51332;SDS011;37417;48.118;11.734;2022-12-08T07:25:21;18.25;;;10.05;;
51332;SDS011;37417;48.118;11.734;2022-12-08T07:28:07;20.05;;;11.63;;
51332;SDS011;37417;48.118;11.734;2022-12-08T07:30:53;18.98;;;11.40;;
51332;SDS011;37417;48.118;11.734;2022-12-08T07:33:38;25.35;;;13.68;;
51332;SDS011;37417;48.118;11.734;2022-12-08T07:36:24;19.63;;;11.35;;
51332;SDS011;37417;48.118;11.734;2022-12-08T07:39:09;17.63;;;12.02;;
51332;SDS011;37417;48.118;11.734;2022-12-08T07:41:55;20.00;;;11.45;;
51332;SDS011;37417;48.118;11.734;2022-12-08T07:44:40;16.00;;;10.98;;
51332;SDS011;37417;48.118;11.734;2022-12-08T07:47:26;14.88;;;9.50;;
51332;SDS011;37417;48.118;11.734;2022-12-08T07:50:11;11.20;;;8.15;;
51332;SDS011;37417;48.118;11.734;2022-12-08T07:52:57;11.40;;;7.93;;
51332;SDS011;37417;48.118;11.734;2022-12-08T07:55:43;13.25;;;7.22;;
51332;SDS011;37417;48.118;11.734;2022-12-08T07:58:28;11.68;;;7.40;;
51332;SDS011;37417;48.118;11.734;2022-12-08T08:01:22;12.88;;;7.60;;
51332;SDS011;37417;48.118;11.734;2022-12-08T08:04:08;12.30;;;8.15;;
51332;SDS011;37417;48.118;11.734;2022-12-08T08:06:54;11.15;;;6.80;;
51332;SDS011;37417;48.118;11.734;2022-12-08T08:09:39;12.73;;;8.05;;
51332;SDS011;37417;48.118;11.734;2022-12-08T08:12:25;9.35;;;6.78;;
51332;SDS011;37417;48.118;11.734;2022-12-08T08:15:10;13.57;;;8.27;;
51332;SDS011;37417;48.118;11.734;2022-12-08T08:17:56;9.68;;;7.88;;
51332;SDS011;37417;48.118;11.734;2022-12-08T08:20:42;9.88;;;6.72;;
51332;SDS011;37417;48.118;11.734;2022-12-08T08:23:27;11.40;;;7.72;;
51332;SDS011;37417;48.118;11.734;2022-12-08T08:26:13;11.77;;;6.70;;
51332;SDS011;37417;48.118;11.734;2022-12-08T08:28:58;9.63;;;6.60;;
51332;SDS011;37417;48.118;11.734;2022-12-08T08:31:44;9.20;;;6.32;;
51332;SDS011;37417;48.118;11.734;2022-12-08T08:34:29;12.20;;;7.63;;
51332;SDS011;37417;48.118;11.734;2022-12-08T08:37:15;9.40;;;7.38;;
51332;SDS011;37417;48.118;11.734;2022-12-08T08:40:01;10.23;;;6.93;;
51332;SDS011;37417;48.118;11.734;2022-12-08T08:42:46;10.38;;;7.20;;
51332;SDS011;37417;48.118;11.734;2022-12-08T08:45:32;11.02;;;8.05;;
51332;SDS011;37417;48.118;11.734;2022-12-08T08:48:17;9.00;;;6.88;;
51332;SDS011;37417;48.118;11.734;2022-12-08T08:51:09;9.95;;;7.15;;
51332;SDS011;37417;48.118;11.734;2022-12-08T08:53:55;9.40;;;6.82;;
51332;SDS011;37417;48.118;11.734;2022-12-08T08:56:41;8.02;;;6.45;;
51332;SDS011;37417;48.118;11.734;2022-12-08T08:59:27;12.73;;;8.00;;
51332;SDS011;37417;48.118;11.734;2022-12-08T09:02:16;10.88;;;7.13;;
51332;SDS011;37417;48.118;11.734;2022-12-08T09:05:02;9.80;;;6.30;;
51332;SDS011;37417;48.118;11.734;2022-12-08T09:07:48;8.00;;;6.38;;
51332;SDS011;37417;48.118;11.734;2022-12-08T09:10:33;7.80;;;6.13;;
51332;SDS011;37417;48.118;11.734;2022-12-08T09:13:19;10.25;;;6.38;;
51332;SDS011;37417;48.118;11.734;2022-12-08T09:16:05;11.50;;;7.15;;
51332;SDS011;37417;48.118;11.734;2022-12-08T09:18:51;9.05;;;6.32;;
51332;SDS011;37417;48.118;11.734;2022-12-08T09:21:38;9.57;;;6.93;;
51332;SDS011;37417;48.118;11.734;2022-12-08T09:24:23;9.05;;;6.95;;
51332;SDS011;37417;48.118;11.734;2022-12-08T09:27:09;10.23;;;7.18;;
51332;SDS011;37417;48.118;11.734;2022-12-08T09:29:54;10.00;;;6.90;;
51332;SDS011;37417;48.118;11.734;2022-12-08T09:32:40;9.48;;;6.70;;
51332;SDS011;37417;48.118;11.734;2022-12-08T09:35:25;10.13;;;6.68;;
51332;SDS011;37417;48.118;11.734;2022-12-08T09:38:11;11.13;;;6.75;;
51332;SDS011;37417;48.118;11.734;2022-12-08T09:40:56;7.75;;;6.05;;
51332;SDS011;37417;48.118;11.734;2022-12-08T09:46:37;7.80;;;6.15;;
51332;SDS011;37417;48.118;11.734;2022-12-08T09:49:26;8.65;;;6.07;;
51332;SDS011;37417;48.118;11.734;2022-12-08T09:52:20;8.65;;;6.50;;
51332;SDS011;37417;48.118;11.734;2022-12-08T09:55:11;8.65;;;5.88;;
51332;SDS011;37417;48.118;11.734;2022-12-08T09:58:00;9.05;;;5.82;;
51332;SDS011;37417;48.118;11.734;2022-12-08T10:00:47;5.45;;;4.53;;
51332;SDS011;37417;48.118;11.734;2022-12-08T10:03:32;8.77;;;4.97;;
51332;SDS011;37417;48.118;11.734;2022-12-08T10:06:37;6.85;;;4.18;;
51332;SDS011;37417;48.118;11.734;2022-12-08T10:17:48;6.68;;;4.55;;
51332;SDS011;37417;48.118;11.734;2022-12-08T10:20:36;6.47;;;4.75;;
51332;SDS011;37417;48.118;11.734;2022-12-08T10:23:32;5.78;;;4.10;;
51332;SDS011;37417;48.118;11.734;2022-12-08T10:26:20;6.43;;;4.82;;
51332;SDS011;37417;48.118;11.734;2022-12-08T10:29:07;6.15;;;4.20;;
51332;SDS011;37417;48.118;11.734;2022-12-08T10:31:56;4.60;;;3.13;;
51332;SDS011;37417;48.118;11.734;2022-12-08T10:37:53;4.07;;;3.22;;
51332;SDS011;37417;48.118;11.734;2022-12-08T10:43:24;5.47;;;4.38;;
51332;SDS011;37417;48.118;11.734;2022-12-08T10:46:12;5.20;;;4.10;;
51332;SDS011;37417;48.118;11.734;2022-12-08T10:51:47;5.88;;;4.38;;
51332;SDS011;37417;48.118;11.734;2022-12-08T10:54:33;4.25;;;3.42;;
51332;SDS011;37417;48.118;11.734;2022-12-08T10:57:21;6.15;;;4.18;;
51332;SDS011;37417;48.118;11.734;2022-12-08T11:00:11;5.25;;;3.92;;
51332;SDS011;37417;48.118;11.734;2022-12-08T11:03:00;6.68;;;4.88;;
51332;SDS011;37417;48.118;11.734;2022-12-08T11:05:46;6.63;;;3.63;;
51332;SDS011;37417;48.118;11.734;2022-12-08T11:08:31;7.25;;;5.05;;
51332;SDS011;37417;48.118;11.734;2022-12-08T11:11:17;4.30;;;3.70;;
51332;SDS011;37417;48.118;11.734;2022-12-08T11:14:07;6.40;;;4.47;;
51332;SDS011;37417;48.118;11.734;2022-12-08T11:17:09;5.43;;;4.18;;
51332;SDS011;37417;48.118;11.734;2022-12-08T11:22:42;5.50;;;3.42;;
51332;SDS011;37417;48.118;11.734;2022-12-08T11:25:28;5.30;;;4.45;;
51332;SDS011;37417;48.118;11.734;2022-12-08T11:28:13;7.35;;;5.55;;
51332;SDS011;37417;48.118;11.734;2022-12-08T11:31:03;10.27;;;5.30;;
51332;SDS011;37417;48.118;11.734;2022-12-08T11:33:49;11.60;;;6.55;;
51332;SDS011;37417;48.118;11.734;2022-12-08T11:36:36;7.78;;;5.45;;
51332;SDS011;37417;48.118;11.734;2022-12-08T11:39:22;12.05;;;7.43;;
51332;SDS011;37417;48.118;11.734;2022-12-08T11:42:10;14.68;;;9.73;;
51332;SDS011;37417;48.118;11.734;2022-12-08T11:44:57;16.08;;;9.48;;
51332;SDS011;37417;48.118;11.734;2022-12-08T11:47:48;16.88;;;10.30;;
51332;SDS011;37417;48.118;11.734;2022-12-08T11:53:46;17.77;;;10.45;;
51332;SDS011;37417;48.118;11.734;2022-12-08T11:56:33;21.13;;;10.85;;
51332;SDS011;37417;48.118;11.734;2022-12-08T12:02:10;17.75;;;9.82;;
51332;SDS011;37417;48.118;11.734;2022-12-08T12:04:59;19.52;;;9.88;;
51332;SDS011;37417;48.118;11.734;2022-12-08T12:08:48;16.20;;;9.50;;
51332;SDS011;37417;48.118;11.734;2022-12-08T12:11:11;16.60;;;9.48;;
51332;SDS011;37417;48.118;11.734;2022-12-08T12:17:30;13.38;;;8.77;;
51332;SDS011;37417;48.118;11.734;2022-12-08T12:23:59;14.38;;;9.40;;
51332;SDS011;37417;48.118;11.734;2022-12-08T12:26:24;19.55;;;9.73;;
51332;SDS011;37417;48.118;11.734;2022-12-08T12:29:15;15.68;;;9.43;;
51332;SDS011;37417;48.118;11.734;2022-12-08T12:32:02;14.00;;;8.48;;
51332;SDS011;37417;48.118;11.734;2022-12-08T12:34:49;14.15;;;9.52;;
51332;SDS011;37417;48.118;11.734;2022-12-08T12:37:37;15.48;;;9.50;;
51332;SDS011;37417;48.118;11.734;2022-12-08T12:40:24;13.90;;;9.07;;
51332;SDS011;37417;48.118;11.734;2022-12-08T12:43:11;15.63;;;9.38;;
51332;SDS011;37417;48.118;11.734;2022-12-08T12:46:36;15.30;;;9.02;;
51332;SDS011;37417;48.118;11.734;2022-12-08T12:55:18;16.48;;;10.07;;
51332;SDS011;37417;48.118;11.734;2022-12-08T12:58:16;14.63;;;9.68;;
51332;SDS011;37417;48.118;11.734;2022-12-08T13:04:07;14.43;;;8.17;;
51332;SDS011;37417;48.118;11.734;2022-12-08T13:06:53;18.08;;;9.38;;
51332;SDS011;37417;48.118;11.734;2022-12-08T13:09:53;16.65;;;9.90;;
51332;SDS011;37417;48.118;11.734;2022-12-08T13:12:40;17.38;;;9.18;;
51332;SDS011;37417;48.118;11.734;2022-12-08T13:15:27;15.40;;;9.25;;
51332;SDS011;37417;48.118;11.734;2022-12-08T13:30:27;13.45;;;8.88;;
51332;SDS011;37417;48.118;11.734;2022-12-08T13:32:55;16.50;;;9.23;;
51332;SDS011;37417;48.118;11.734;2022-12-08T13:35:44;15.50;;;9.52;;
51332;SDS011;37417;48.118;11.734;2022-12-08T13:38:33;20.45;;;10.52;;
51332;SDS011;37417;48.118;11.734;2022-12-08T13:41:21;19.00;;;9.75;;
51332;SDS011;37417;48.118;11.734;2022-12-08T13:44:11;15.00;;;9.25;;
51332;SDS011;37417;48.118;11.734;2022-12-08T13:46:59;15.45;;;9.98;;
51332;SDS011;37417;48.118;11.734;2022-12-08T13:49:49;15.52;;;9.40;;
51332;SDS011;37417;48.118;11.734;2022-12-08T13:55:41;15.65;;;10.73;;
51332;SDS011;37417;48.118;11.734;2022-12-08T13:58:32;15.90;;;9.73;;
51332;SDS011;37417;48.118;11.734;2022-12-08T14:01:21;15.85;;;9.20;;
51332;SDS011;37417;48.118;11.734;2022-12-08T14:04:15;17.88;;;10.07;;
51332;SDS011;37417;48.118;11.734;2022-12-08T14:07:01;15.93;;;10.25;;
51332;SDS011;37417;48.118;11.734;2022-12-08T14:09:47;22.83;;;10.50;;
51332;SDS011;37417;48.118;11.734;2022-12-08T14:12:33;15.77;;;9.85;;
51332;SDS011;37417;48.118;11.734;2022-12-08T14:15:18;15.55;;;10.48;;
51332;SDS011;37417;48.118;11.734;2022-12-08T14:18:06;18.20;;;8.75;;
51332;SDS011;37417;48.118;11.734;2022-12-08T14:21:06;16.40;;;9.52;;
51332;SDS011;37417;48.118;11.734;2022-12-08T14:23:59;18.38;;;9.85;;
51332;SDS011;37417;48.118;11.734;2022-12-08T14:26:45;18.02;;;9.57;;
51332;SDS011;37417;48.118;11.734;2022-12-08T14:29:47;16.50;;;8.90;;
51332;SDS011;37417;48.118;11.734;2022-12-08T14:32:37;13.82;;;8.25;;
51332;SDS011;37417;48.118;11.734;2022-12-08T14:35:30;16.15;;;9.35;;
51332;SDS011;37417;48.118;11.734;2022-12-08T14:38:17;15.48;;;9.00;;
51332;SDS011;37417;48.118;11.734;2022-12-08T14:41:04;14.85;;;9.32;;
51332;SDS011;37417;48.118;11.734;2022-12-08T14:43:57;16.17;;;8.75;;
51332;SDS011;37417;48.118;11.734;2022-12-08T14:49:32;14.27;;;8.13;;
51332;SDS011;37417;48.118;11.734;2022-12-08T14:52:18;16.60;;;8.95;;
51332;SDS011;37417;48.118;11.734;2022-12-08T14:55:04;14.88;;;8.95;;
51332;SDS011;37417;48.118;11.734;2022-12-08T14:57:51;15.13;;;9.27;;
51332;SDS011;37417;48.118;11.734;2022-12-08T15:00:37;13.32;;;8.60;;
51332;SDS011;37417;48.118;11.734;2022-12-08T15:03:29;16.75;;;8.55;;
51332;SDS011;37417;48.118;11.734;2022-12-08T15:06:15;17.65;;;8.95;;
51332;SDS011;37417;48.118;11.734;2022-12-08T15:09:14;18.70;;;9.52;;
51332;SDS011;37417;48.118;11.734;2022-12-08T15:12:05;17.17;;;9.95;;
51332;SDS011;37417;48.118;11.734;2022-12-08T15:17:41;24.55;;;9.63;;
51332;SDS011;37417;48.118;11.734;2022-12-08T15:20:44;15.60;;;9.65;;
51332;SDS011;37417;48.118;11.734;2022-12-08T15:23:31;16.17;;;8.70;;
51332;SDS011;37417;48.118;11.734;2022-12-08T15:26:19;17.75;;;10.32;;
51332;SDS011;37417;48.118;11.734;2022-12-08T15:29:16;24.20;;;11.02;;
51332;SDS011;37417;48.118;11.734;2022-12-08T15:32:04;20.23;;;9.90;;
51332;SDS011;37417;48.118;11.734;2022-12-08T15:34:49;22.70;;;10.10;;
51332;SDS011;37417;48.118;11.734;2022-12-08T15:37:35;24.80;;;10.68;;
51332;SDS011;37417;48.118;11.734;2022-12-08T15:40:21;21.38;;;10.35;;
51332;SDS011;37417;48.118;11.734;2022-12-08T15:43:11;20.67;;;10.73;;
51332;SDS011;37417;48.118;11.734;2022-12-08T15:45:57;20.08;;;11.05;;
51332;SDS011;37417;48.118;11.734;2022-12-08T15:48:42;20.63;;;11.07;;
51332;SDS011;37417;48.118;11.734;2022-12-08T15:51:28;17.42;;;10.35;;
51332;SDS011;37417;48.118;11.734;2022-12-08T15:54:15;18.17;;;10.35;;
51332;SDS011;37417;48.118;11.734;2022-12-08T15:57:00;15.05;;;9.77;;
51332;SDS011;37417;48.118;11.734;2022-12-08T15:59:46;17.60;;;9.82;;
51332;SDS011;37417;48.118;11.734;2022-12-08T16:02:32;18.45;;;9.90;;
51332;SDS011;37417;48.118;11.734;2022-12-08T16:05:17;17.48;;;9.90;;
51332;SDS011;37417;48.118;11.734;2022-12-08T16:08:03;20.00;;;11.38;;
51332;SDS011;37417;48.118;11.734;2022-12-08T16:10:49;19.85;;;11.65;;
51332;SDS011;37417;48.118;11.734;2022-12-08T16:13:35;19.30;;;11.13;;
51332;SDS011;37417;48.118;11.734;2022-12-08T16:16:36;23.25;;;11.35;;
51332;SDS011;37417;48.118;11.734;2022-12-08T16:19:21;23.92;;;11.63;;
51332;SDS011;37417;48.118;11.734;2022-12-08T16:22:11;20.77;;;11.23;;
51332;SDS011;37417;48.118;11.734;2022-12-08T16:24:59;21.65;;;10.13;;
51332;SDS011;37417;48.118;11.734;2022-12-08T16:27:45;19.15;;;11.50;;
51332;SDS011;37417;48.118;11.734;2022-12-08T16:30:31;19.50;;;12.00;;
51332;SDS011;37417;48.118;11.734;2022-12-08T16:33:17;23.98;;;11.27;;
51332;SDS011;37417;48.118;11.734;2022-12-08T16:36:03;21.33;;;10.27;;
51332;SDS011;37417;48.118;11.734;2022-12-08T16:38:49;22.00;;;11.30;;
51332;SDS011;37417;48.118;11.734;2022-12-08T16:41:34;23.10;;;11.50;;
51332;SDS011;37417;48.118;11.734;2022-12-08T16:44:39;22.77;;;12.65;;
51332;SDS011;37417;48.118;11.734;2022-12-08T16:47:26;18.98;;;11.70;;
51332;SDS011;37417;48.118;11.734;2022-12-08T16:50:13;22.05;;;11.65;;
51332;SDS011;37417;48.118;11.734;2022-12-08T16:53:04;24.27;;;13.02;;
51332;SDS011;37417;48.118;11.734;2022-12-08T16:55:49;20.17;;;11.90;;
51332;SDS011;37417;48.118;11.734;2022-12-08T16:58:35;18.00;;;11.07;;
51332;SDS011;37417;48.118;11.734;2022-12-08T17:01:21;20.23;;;12.18;;
51332;SDS011;37417;48.118;11.734;2022-12-08T17:04:07;19.73;;;11.93;;
51332;SDS011;37417;48.118;11.734;2022-12-08T17:06:53;26.00;;;13.10;;
51332;SDS011;37417;48.118;11.734;2022-12-08T17:09:38;23.08;;;12.13;;
51332;SDS011;37417;48.118;11.734;2022-12-08T17:12:24;23.83;;;13.00;;
51332;SDS011;37417;48.118;11.734;2022-12-08T17:15:11;21.50;;;11.55;;
51332;SDS011;37417;48.118;11.734;2022-12-08T17:17:56;26.88;;;14.82;;
51332;SDS011;37417;48.118;11.734;2022-12-08T17:20:42;28.33;;;12.38;;
51332;SDS011;37417;48.118;11.734;2022-12-08T17:23:27;24.48;;;12.93;;
51332;SDS011;37417;48.118;11.734;2022-12-08T17:26:13;22.10;;;13.68;;
51332;SDS011;37417;48.118;11.734;2022-12-08T17:29:00;25.48;;;12.82;;
51332;SDS011;37417;48.118;11.734;2022-12-08T17:31:45;27.60;;;12.70;;
51332;SDS011;37417;48.118;11.734;2022-12-08T17:34:31;23.88;;;13.23;;
51332;SDS011;37417;48.118;11.734;2022-12-08T17:37:17;23.23;;;13.25;;
51332;SDS011;37417;48.118;11.734;2022-12-08T17:40:03;26.55;;;13.77;;
51332;SDS011;37417;48.118;11.734;2022-12-08T17:42:48;22.02;;;12.65;;
51332;SDS011;37417;48.118;11.734;2022-12-08T17:45:34;27.52;;;13.23;;
51332;SDS011;37417;48.118;11.734;2022-12-08T17:48:24;34.92;;;13.45;;
51332;SDS011;37417;48.118;11.734;2022-12-08T17:51:10;26.45;;;13.90;;
51332;SDS011;37417;48.118;11.734;2022-12-08T17:53:55;23.20;;;14.23;;
51332;SDS011;37417;48.118;11.734;2022-12-08T17:56:41;21.02;;;13.25;;
51332;SDS011;37417;48.118;11.734;2022-12-08T17:59:28;27.58;;;14.90;;